createdAt,value
2022-10-17T00:00:34.696Z,5.80
2022-10-17T00:03:02.805Z,6.95
2022-10-17T00:05:31.827Z,5.90
2022-10-17T00:07:59.484Z,6.35
2022-10-17T00:10:27.152Z,5.70
2022-10-17T00:12:54.794Z,6.03
2022-10-17T00:15:23.034Z,6.82
2022-10-17T00:17:50.814Z,7.45
2022-10-17T00:20:18.647Z,6.63
2022-10-17T00:22:47.643Z,6.60
2022-10-17T00:25:15.312Z,6.93
2022-10-17T00:27:43.392Z,7.23
2022-10-17T00:30:13.276Z,6.47
2022-10-17T00:32:41.193Z,6.57
2022-10-17T00:35:09.807Z,6.95
2022-10-17T00:37:37.464Z,6.53
2022-10-17T00:40:08.153Z,7.30
2022-10-17T00:42:35.953Z,7.10
2022-10-17T00:45:15.022Z,7.22
2022-10-17T00:47:43.067Z,7.97
2022-10-17T00:50:10.852Z,7.20
2022-10-17T00:52:38.729Z,7.50
2022-10-17T00:55:11.494Z,7.70
2022-10-17T00:57:40.169Z,7.50
2022-10-17T01:00:10.618Z,7.10
2022-10-17T01:02:38.842Z,6.78
2022-10-17T01:05:07.681Z,7.55
2022-10-17T01:07:37.266Z,7.32
2022-10-17T01:10:06.289Z,7.57
2022-10-17T01:12:42.860Z,7.37
2022-10-17T01:15:14.315Z,7.10
2022-10-17T01:17:52.109Z,7.10
2022-10-17T01:20:44.220Z,7.45
2022-10-17T01:23:24.764Z,7.50
2022-10-17T01:25:57.108Z,8.55
2022-10-17T01:31:13.798Z,7.38
2022-10-17T01:33:48.733Z,8.20
2022-10-17T01:36:26.287Z,7.97
2022-10-17T01:39:00.280Z,8.15
2022-10-17T01:41:36.049Z,8.38
2022-10-17T01:44:08.978Z,8.95
2022-10-17T01:46:39.498Z,8.80
2022-10-17T01:49:09.623Z,10.77
2022-10-17T01:51:39.284Z,8.15
2022-10-17T01:54:11.907Z,8.65
2022-10-17T01:56:40.534Z,9.60
2022-10-17T01:59:12.697Z,8.13
2022-10-17T02:01:43.014Z,8.00
2022-10-17T02:04:11.742Z,9.30
2022-10-17T02:06:39.772Z,8.13
2022-10-17T02:09:21.964Z,8.63
2022-10-17T02:12:03.574Z,9.25
2022-10-17T02:14:39.325Z,8.32
2022-10-17T02:17:12.363Z,9.15
2022-10-17T02:19:48.062Z,8.52
2022-10-17T02:22:20.970Z,8.50
2022-10-17T02:24:51.396Z,8.30
2022-10-17T02:27:26.613Z,8.15
2022-10-17T02:29:58.454Z,8.35
2022-10-17T02:32:32.744Z,8.23
2022-10-17T02:35:01.862Z,8.57
2022-10-17T02:37:31.566Z,8.90
2022-10-17T02:40:00.770Z,7.88
2022-10-17T02:42:29.472Z,7.65
2022-10-17T02:45:01.018Z,8.73
2022-10-17T02:47:33.832Z,7.97
2022-10-17T02:50:02.242Z,8.53
2022-10-17T02:52:33.523Z,8.43
2022-10-17T02:55:05.102Z,9.07
2022-10-17T02:57:37.265Z,9.05
2022-10-17T03:00:07.150Z,8.80
2022-10-17T03:02:42.395Z,8.43
2022-10-17T03:05:10.695Z,9.50
2022-10-17T03:07:38.365Z,9.60
2022-10-17T03:10:06.909Z,9.50
2022-10-17T03:12:34.682Z,9.48
2022-10-17T03:15:02.330Z,9.60
2022-10-17T03:17:29.914Z,9.13
2022-10-17T03:19:59.166Z,10.40
2022-10-17T03:22:27.048Z,8.75
2022-10-17T03:24:54.890Z,9.80
2022-10-17T03:27:22.619Z,9.75
2022-10-17T03:29:50.282Z,10.30
2022-10-17T03:32:17.945Z,9.43
2022-10-17T03:34:45.745Z,9.60
2022-10-17T03:37:14.946Z,10.95
2022-10-17T03:39:42.599Z,9.63
2022-10-17T03:42:10.259Z,9.25
2022-10-17T03:44:37.929Z,9.40
2022-10-17T03:47:08.096Z,10.57
2022-10-17T03:49:38.227Z,9.77
2022-10-17T03:52:05.983Z,9.77
2022-10-17T03:54:34.915Z,10.07
2022-10-17T03:57:02.774Z,9.50
2022-10-17T03:59:30.486Z,10.00
2022-10-17T04:01:58.165Z,10.20
2022-10-17T04:04:25.914Z,9.93
2022-10-17T04:06:53.511Z,9.77
2022-10-17T04:09:21.106Z,9.55
2022-10-17T04:11:50.153Z,9.77
2022-10-17T04:14:17.856Z,9.47
2022-10-17T04:16:45.470Z,9.77
2022-10-17T04:19:14.221Z,9.73
2022-10-17T04:21:41.928Z,10.00
2022-10-17T04:24:11.597Z,9.65
2022-10-17T04:26:39.320Z,10.13
2022-10-17T04:29:08.368Z,10.00
2022-10-17T04:31:35.995Z,9.40
2022-10-17T04:34:03.656Z,10.23
2022-10-17T04:36:31.285Z,9.48
2022-10-17T04:38:58.938Z,10.52
2022-10-17T04:41:26.962Z,9.02
2022-10-17T04:43:54.928Z,10.98
2022-10-17T04:46:24.030Z,11.18
2022-10-17T04:48:51.652Z,9.80
2022-10-17T04:51:21.972Z,9.77
2022-10-17T04:53:52.214Z,9.88
2022-10-17T04:56:21.556Z,10.27
2022-10-17T04:58:49.418Z,9.85
2022-10-17T05:01:19.175Z,8.77
2022-10-17T05:03:48.561Z,9.95
2022-10-17T05:06:18.149Z,9.68
2022-10-17T05:08:46.164Z,10.17
2022-10-17T05:11:21.379Z,8.93
2022-10-17T05:13:52.259Z,10.23
2022-10-17T05:16:19.954Z,9.20
2022-10-17T05:18:52.914Z,10.35
2022-10-17T05:21:21.734Z,9.47
2022-10-17T05:23:49.474Z,11.25
2022-10-17T05:26:17.266Z,9.05
2022-10-17T05:28:45.058Z,10.60
2022-10-17T05:31:13.178Z,10.30
2022-10-17T05:33:41.109Z,9.48
2022-10-17T05:36:10.473Z,10.85
2022-10-17T05:38:38.126Z,9.88
2022-10-17T05:41:06.772Z,9.37
2022-10-17T05:43:35.108Z,8.65
2022-10-17T05:46:05.372Z,9.18
2022-10-17T05:48:33.054Z,9.75
2022-10-17T05:51:01.405Z,10.48
2022-10-17T05:53:33.359Z,9.53
2022-10-17T05:56:02.173Z,8.88
2022-10-17T05:58:49.110Z,8.88
2022-10-17T06:01:17.820Z,10.30
2022-10-17T06:03:45.444Z,9.57
2022-10-17T06:06:14.586Z,9.48
2022-10-17T06:08:43.967Z,9.10
2022-10-17T06:11:11.674Z,8.73
2022-10-17T06:13:39.631Z,9.30
2022-10-17T06:16:07.882Z,8.52
2022-10-17T06:18:35.636Z,10.05
2022-10-17T06:21:04.210Z,9.57
2022-10-17T06:23:31.921Z,8.37
2022-10-17T06:26:02.396Z,9.30
2022-10-17T06:28:30.446Z,10.45
2022-10-17T06:30:58.183Z,10.00
2022-10-17T06:33:25.973Z,8.70
2022-10-17T06:35:53.762Z,8.43
2022-10-17T06:38:21.615Z,10.10
2022-10-17T06:40:49.226Z,8.98
2022-10-17T06:43:18.286Z,9.00
2022-10-17T06:45:47.422Z,8.93
2022-10-17T06:48:15.482Z,10.03
2022-10-17T06:50:43.197Z,8.77
2022-10-17T06:53:10.863Z,10.80
2022-10-17T06:55:38.507Z,9.32
2022-10-17T06:58:06.151Z,7.73
2022-10-17T07:00:35.541Z,9.48
2022-10-17T07:03:03.332Z,10.90
2022-10-17T07:05:30.970Z,9.50
2022-10-17T07:07:58.650Z,8.50
2022-10-17T07:10:27.491Z,10.10
2022-10-17T07:12:55.115Z,9.48
2022-10-17T07:15:22.865Z,8.27
2022-10-17T07:17:51.900Z,9.05
2022-10-17T07:20:19.573Z,9.25
2022-10-17T07:22:47.257Z,9.65
2022-10-17T07:25:14.986Z,10.80
2022-10-17T07:27:42.644Z,9.23
2022-10-17T07:30:11.660Z,7.85
2022-10-17T07:32:39.299Z,7.57
2022-10-17T07:35:08.913Z,7.53
2022-10-17T07:37:36.753Z,7.38
2022-10-17T07:40:04.994Z,7.30
2022-10-17T07:42:32.651Z,7.32
2022-10-17T07:45:00.623Z,7.13
2022-10-17T07:47:31.302Z,9.95
2022-10-17T07:49:59.440Z,9.45
2022-10-17T07:52:28.735Z,8.23
2022-10-17T07:54:56.508Z,9.23
2022-10-17T07:57:24.163Z,7.32
2022-10-17T07:59:51.872Z,7.20
2022-10-17T08:02:23.763Z,7.25
2022-10-17T08:04:51.476Z,6.53
2022-10-17T08:07:24.094Z,7.40
2022-10-17T08:09:56.084Z,8.70
2022-10-17T08:12:25.014Z,7.85
2022-10-17T08:14:52.669Z,7.13
2022-10-17T08:17:20.302Z,6.68
2022-10-17T08:19:47.975Z,7.72
2022-10-17T08:22:15.627Z,7.50
2022-10-17T08:24:44.487Z,7.30
2022-10-17T08:27:13.795Z,8.07
2022-10-17T08:29:42.057Z,7.90
2022-10-17T08:32:10.468Z,7.22
2022-10-17T08:34:38.182Z,9.05
2022-10-17T08:37:06.068Z,8.02
2022-10-17T08:39:33.798Z,7.53
2022-10-17T08:42:10.373Z,7.80
2022-10-17T08:44:49.867Z,8.27
2022-10-17T08:47:22.045Z,6.90
2022-10-17T08:49:52.517Z,9.00
2022-10-17T08:52:25.988Z,7.80
2022-10-17T08:54:53.681Z,7.07
2022-10-17T08:57:21.441Z,9.93
2022-10-17T08:59:53.613Z,7.63
2022-10-17T09:02:40.175Z,9.10
2022-10-17T09:05:26.853Z,7.65
2022-10-17T09:08:00.090Z,8.48
2022-10-17T09:10:35.179Z,6.88
2022-10-17T09:13:11.423Z,6.30
2022-10-17T09:15:47.274Z,7.32
2022-10-17T09:18:21.186Z,8.65
2022-10-17T09:20:52.857Z,9.43
2022-10-17T09:23:23.671Z,8.00
2022-10-17T09:25:54.140Z,8.55
2022-10-17T09:28:23.367Z,9.40
2022-10-17T09:30:57.051Z,8.95
2022-10-17T09:33:35.196Z,7.30
2022-10-17T09:36:14.656Z,8.77
2022-10-17T09:38:44.406Z,7.70
2022-10-17T09:41:44.439Z,6.85
2022-10-17T09:44:15.424Z,7.00
2022-10-17T09:46:50.578Z,9.57
2022-10-17T09:49:20.788Z,8.52
2022-10-17T09:51:49.315Z,7.53
2022-10-17T09:54:21.934Z,7.47
2022-10-17T09:57:01.460Z,7.78
2022-10-17T09:59:34.007Z,6.88
2022-10-17T10:02:19.770Z,6.75
2022-10-17T10:05:10.570Z,7.45
2022-10-17T10:07:39.613Z,8.75
2022-10-17T10:10:09.881Z,6.55
2022-10-17T10:12:39.543Z,9.77
2022-10-17T10:15:32.080Z,8.07
2022-10-17T10:18:01.239Z,7.93
2022-10-17T10:20:32.800Z,8.60
2022-10-17T10:23:15.939Z,8.00
2022-10-17T10:25:53.871Z,9.63
2022-10-17T10:28:23.456Z,9.18
2022-10-17T10:30:52.705Z,9.27
2022-10-17T10:33:23.826Z,9.55
2022-10-17T10:35:57.771Z,10.67
2022-10-17T10:38:25.541Z,7.55
2022-10-17T10:40:55.361Z,8.73
2022-10-17T10:43:26.311Z,10.95
2022-10-17T10:45:54.404Z,8.93
2022-10-17T10:48:25.049Z,10.38
2022-10-17T10:50:55.597Z,9.27
2022-10-17T10:53:44.289Z,9.90
2022-10-17T10:56:15.772Z,8.90
2022-10-17T10:58:52.103Z,9.77
2022-10-17T11:01:25.243Z,9.30
2022-10-17T11:04:07.963Z,9.48
2022-10-17T11:06:37.576Z,10.47
2022-10-17T11:09:14.399Z,9.75
2022-10-17T11:11:44.922Z,13.57
2022-10-17T11:14:16.212Z,9.55
2022-10-17T11:16:48.369Z,10.32
2022-10-17T11:19:21.928Z,9.80
2022-10-17T11:21:53.486Z,10.70
2022-10-17T11:24:25.523Z,10.30
2022-10-17T11:26:56.747Z,10.30
2022-10-17T11:29:28.493Z,10.02
2022-10-17T11:31:57.872Z,10.85
2022-10-17T11:34:28.434Z,10.38
2022-10-17T11:36:58.401Z,12.02
2022-10-17T11:39:31.377Z,10.80
2022-10-17T11:42:03.522Z,10.57
2022-10-17T11:44:35.681Z,11.93
2022-10-17T11:47:07.674Z,11.73
2022-10-17T11:49:41.853Z,12.32
2022-10-17T11:52:37.786Z,13.82
2022-10-17T11:55:13.699Z,15.75
2022-10-17T11:57:54.047Z,16.98
2022-10-17T12:00:32.650Z,16.45
2022-10-17T12:03:08.492Z,16.27
2022-10-17T12:05:42.570Z,16.40
2022-10-17T12:08:13.998Z,15.77
2022-10-17T12:10:47.592Z,16.17
2022-10-17T12:13:50.104Z,16.23
2022-10-17T12:16:51.011Z,17.53
2022-10-17T12:19:39.802Z,16.48
2022-10-17T12:22:20.792Z,16.93
2022-10-17T12:24:57.074Z,16.35
2022-10-17T12:27:39.339Z,16.17
2022-10-17T12:30:17.017Z,14.45
2022-10-17T12:33:07.447Z,16.95
2022-10-17T12:35:37.116Z,15.73
2022-10-17T12:38:30.165Z,15.50
2022-10-17T12:40:59.936Z,17.38
2022-10-17T12:43:56.076Z,18.17
2022-10-17T12:46:47.305Z,16.08
2022-10-17T12:49:37.834Z,14.50
2022-10-17T12:52:27.483Z,17.83
2022-10-17T12:55:12.014Z,14.63
2022-10-17T12:57:53.059Z,15.30
2022-10-17T13:00:24.548Z,16.30
2022-10-17T13:02:54.607Z,15.27
2022-10-17T13:05:28.303Z,17.90
2022-10-17T13:07:56.794Z,15.07
2022-10-17T13:10:28.225Z,16.80
2022-10-17T13:13:08.506Z,14.43
2022-10-17T13:15:37.322Z,16.38
2022-10-17T13:18:06.067Z,14.80
2022-10-17T13:20:33.974Z,15.07
2022-10-17T13:23:01.711Z,16.33
2022-10-17T13:25:31.009Z,15.68
2022-10-17T13:28:07.999Z,14.77
2022-10-17T13:30:36.886Z,16.63
2022-10-17T13:33:05.333Z,18.08
2022-10-17T13:35:55.715Z,14.60
2022-10-17T13:38:25.866Z,15.70
2022-10-17T13:41:01.703Z,14.00
2022-10-17T13:43:38.959Z,15.88
2022-10-17T13:46:32.304Z,16.05
2022-10-17T13:48:55.298Z,16.50
2022-10-17T13:51:23.289Z,15.45
2022-10-17T13:53:50.950Z,17.60
2022-10-17T13:56:28.226Z,15.80
2022-10-17T13:58:57.922Z,15.40
2022-10-17T14:01:26.974Z,20.13
2022-10-17T14:04:07.693Z,17.30
2022-10-17T14:06:39.293Z,17.45
2022-10-17T14:09:08.923Z,19.73
2022-10-17T14:11:39.622Z,17.55
2022-10-17T14:14:08.859Z,21.63
2022-10-17T14:16:39.176Z,18.95
2022-10-17T14:19:08.095Z,25.48
2022-10-17T14:21:43.709Z,17.90
2022-10-17T14:24:31.458Z,18.70
2022-10-17T14:27:01.298Z,20.70
2022-10-17T14:29:30.854Z,16.67
2022-10-17T14:32:00.503Z,23.60
2022-10-17T14:34:31.528Z,22.27
2022-10-17T14:36:59.382Z,17.42
2022-10-17T14:39:28.764Z,17.05
2022-10-17T14:41:58.724Z,24.92
2022-10-17T14:44:33.474Z,18.70
2022-10-17T14:47:18.152Z,18.83
2022-10-17T14:49:51.285Z,20.85
2022-10-17T14:52:32.785Z,16.33
2022-10-17T14:55:02.479Z,21.83
2022-10-17T14:57:42.308Z,22.13
2022-10-17T15:00:15.495Z,18.90
2022-10-17T15:02:43.226Z,16.75
2022-10-17T15:05:13.488Z,17.98
2022-10-17T15:07:41.513Z,18.52
2022-10-17T15:10:22.401Z,16.20
2022-10-17T15:12:57.564Z,17.60
2022-10-17T15:15:29.265Z,17.63
2022-10-17T15:17:56.932Z,15.77
2022-10-17T15:20:27.913Z,15.57
2022-10-17T15:22:56.248Z,15.43
2022-10-17T15:25:24.230Z,16.13
2022-10-17T15:27:51.923Z,18.37
2022-10-17T15:30:22.789Z,16.45
2022-10-17T15:32:53.451Z,16.23
2022-10-17T15:35:21.974Z,18.13
2022-10-17T15:37:50.373Z,18.05
2022-10-17T15:40:19.544Z,17.63
2022-10-17T15:42:47.370Z,16.17
2022-10-17T15:45:21.577Z,17.38
2022-10-17T15:47:53.798Z,15.38
2022-10-17T15:50:22.572Z,15.57
2022-10-17T15:52:52.222Z,15.25
2022-10-17T15:55:20.006Z,16.70
2022-10-17T15:57:49.070Z,18.67
2022-10-17T16:00:18.434Z,16.70
2022-10-17T16:02:46.538Z,16.52
2022-10-17T16:05:18.033Z,15.77
2022-10-17T16:07:46.867Z,16.17
2022-10-17T16:10:15.043Z,23.10
2022-10-17T16:12:43.344Z,27.95
2022-10-17T16:15:15.964Z,27.20
2022-10-17T16:17:43.975Z,28.05
2022-10-17T16:20:12.653Z,40.47
2022-10-17T16:22:43.642Z,54.88
2022-10-17T16:25:20.153Z,43.97
2022-10-17T16:27:48.407Z,34.35
2022-10-17T16:30:16.657Z,44.63
2022-10-17T16:32:44.412Z,39.58
2022-10-17T16:35:17.705Z,26.98
2022-10-17T16:37:47.510Z,25.52
2022-10-17T16:40:15.780Z,25.50
2022-10-17T16:42:43.763Z,18.85
2022-10-17T16:45:16.983Z,19.05
2022-10-17T16:47:44.709Z,18.90
2022-10-17T16:50:12.580Z,21.88
2022-10-17T16:52:40.237Z,22.15
2022-10-17T16:55:10.885Z,23.13
2022-10-17T16:57:38.745Z,20.23
2022-10-17T17:00:08.002Z,19.65
2022-10-17T17:02:35.742Z,17.52
2022-10-17T17:05:03.434Z,19.85
2022-10-17T17:07:31.326Z,18.20
2022-10-17T17:09:59.247Z,20.30
2022-10-17T17:12:28.318Z,19.10
2022-10-17T17:14:55.950Z,20.27
2022-10-17T17:17:36.913Z,21.13
2022-10-17T17:20:11.428Z,19.40
2022-10-17T17:22:39.933Z,18.63
2022-10-17T17:25:08.086Z,19.30
2022-10-17T17:27:37.117Z,20.05
2022-10-17T17:30:05.238Z,22.00
2022-10-17T17:32:33.858Z,20.53
2022-10-17T17:35:01.527Z,22.38
2022-10-17T17:37:29.590Z,20.42
2022-10-17T17:39:57.437Z,18.45
2022-10-17T17:42:25.126Z,18.17
2022-10-17T17:44:54.194Z,20.27
2022-10-17T17:47:21.779Z,20.15
2022-10-17T17:49:49.425Z,18.67
2022-10-17T17:52:17.143Z,18.17
2022-10-17T17:54:45.581Z,20.48
2022-10-17T17:57:13.296Z,19.80
2022-10-17T17:59:41.475Z,20.33
2022-10-17T18:02:10.897Z,23.15
2022-10-17T18:04:38.686Z,22.00
2022-10-17T18:07:06.454Z,20.73
2022-10-17T18:09:34.199Z,26.88
2022-10-17T18:12:01.879Z,24.27
2022-10-17T18:14:29.565Z,22.60
2022-10-17T18:16:57.201Z,21.02
2022-10-17T18:19:28.190Z,21.92
2022-10-17T18:21:55.859Z,21.87
2022-10-17T18:24:23.478Z,22.13
2022-10-17T18:26:53.873Z,22.02
2022-10-17T18:29:21.570Z,22.63
2022-10-17T18:31:49.165Z,23.98
2022-10-17T18:34:16.768Z,24.25
2022-10-17T18:36:45.837Z,26.50
2022-10-17T18:39:13.455Z,24.95
2022-10-17T18:41:41.074Z,28.15
2022-10-17T18:44:08.739Z,25.48
2022-10-17T18:46:40.798Z,26.50
2022-10-17T18:49:09.062Z,37.67
2022-10-17T18:51:36.790Z,29.70
2022-10-17T18:54:05.861Z,26.50
2022-10-17T18:56:33.537Z,26.55
2022-10-17T18:59:02.118Z,24.67
2022-10-17T19:01:29.733Z,25.73
2022-10-17T19:03:59.168Z,26.13
2022-10-17T19:06:28.180Z,26.30
2022-10-17T19:08:56.023Z,28.15
2022-10-17T19:11:26.804Z,26.80
2022-10-17T19:13:54.991Z,25.83
2022-10-17T19:16:24.816Z,26.77
2022-10-17T19:18:53.096Z,26.83
2022-10-17T19:21:22.054Z,27.98
2022-10-17T19:23:51.532Z,31.27
2022-10-17T19:26:20.026Z,29.63
2022-10-17T19:28:52.081Z,31.35
2022-10-17T19:31:26.215Z,25.52
2022-10-17T19:33:54.868Z,38.85
2022-10-17T19:36:25.401Z,32.58
2022-10-17T19:38:55.622Z,32.10
2022-10-17T19:41:23.659Z,29.20
2022-10-17T19:43:52.994Z,39.10
2022-10-17T19:46:27.213Z,34.30
2022-10-17T19:48:54.858Z,29.92
2022-10-17T19:51:24.364Z,29.55
2022-10-17T19:53:52.946Z,32.80
2022-10-17T19:56:21.054Z,29.92
2022-10-17T19:58:49.348Z,28.75
2022-10-17T20:01:20.182Z,36.92
2022-10-17T20:03:47.968Z,29.27
2022-10-17T20:06:16.129Z,33.42
2022-10-17T20:08:44.070Z,32.33
2022-10-17T20:11:13.759Z,40.15
2022-10-17T20:13:41.744Z,45.00
2022-10-17T20:16:16.583Z,36.22
2022-10-17T20:18:45.671Z,35.85
2022-10-17T20:21:15.665Z,42.05
2022-10-17T20:23:43.777Z,41.77
2022-10-17T20:26:33.181Z,45.67
2022-10-17T20:29:08.553Z,37.00
2022-10-17T20:31:36.415Z,35.50
2022-10-17T20:34:05.360Z,32.28
2022-10-17T20:36:36.981Z,30.63
2022-10-17T20:39:06.277Z,33.80
2022-10-17T20:41:34.516Z,37.08
2022-10-17T20:44:02.141Z,42.10
2022-10-17T20:46:39.682Z,31.83
2022-10-17T20:49:15.975Z,27.42
2022-10-17T20:51:44.005Z,28.35
2022-10-17T20:54:11.699Z,28.60
2022-10-17T20:56:39.827Z,28.02
2022-10-17T20:59:09.165Z,28.23
2022-10-17T21:01:37.013Z,30.98
2022-10-17T21:04:26.907Z,29.10
2022-10-17T21:06:54.492Z,28.90
2022-10-17T21:09:22.928Z,28.52
2022-10-17T21:11:55.019Z,27.52
2022-10-17T21:14:23.645Z,33.30
2022-10-17T21:16:52.224Z,31.52
2022-10-17T21:19:21.574Z,29.35
2022-10-17T21:21:49.222Z,30.17
2022-10-17T21:24:20.450Z,28.75
2022-10-17T21:26:50.091Z,35.05
2022-10-17T21:29:17.851Z,29.50
2022-10-17T21:31:45.644Z,27.30
2022-10-17T21:34:15.289Z,31.03
2022-10-17T21:36:44.066Z,36.95
2022-10-17T21:39:12.231Z,32.03
2022-10-17T21:41:41.822Z,27.67
2022-10-17T21:44:13.201Z,27.63
2022-10-17T21:46:40.853Z,27.85
2022-10-17T21:49:08.521Z,33.65
2022-10-17T21:51:36.170Z,27.23
2022-10-17T21:54:05.695Z,24.63
2022-10-17T21:56:34.708Z,27.83
2022-10-17T21:59:04.833Z,36.95
2022-10-17T22:01:34.369Z,40.05
2022-10-17T22:04:03.738Z,35.85
2022-10-17T22:06:39.688Z,34.13
2022-10-17T22:09:10.307Z,26.05
2022-10-17T22:11:38.139Z,25.43
2022-10-17T22:14:08.635Z,23.40
2022-10-17T22:16:36.457Z,23.75
2022-10-17T22:19:06.675Z,24.90
2022-10-17T22:21:35.537Z,32.03
2022-10-17T22:24:04.975Z,23.67
2022-10-17T22:26:34.444Z,24.13
2022-10-17T22:29:02.504Z,22.90
2022-10-17T22:31:31.636Z,34.45
2022-10-17T22:33:59.262Z,26.55
2022-10-17T22:36:26.983Z,22.30
2022-10-17T22:38:54.693Z,23.77
2022-10-17T22:41:23.209Z,20.25
2022-10-17T22:43:50.906Z,22.77
2022-10-17T22:46:18.577Z,33.58
2022-10-17T22:48:47.622Z,26.60
2022-10-17T22:51:15.495Z,25.25
2022-10-17T22:53:43.272Z,24.67
2022-10-17T22:56:12.851Z,24.42
2022-10-17T22:58:40.808Z,24.87
2022-10-17T23:01:09.483Z,26.08
2022-10-17T23:03:37.147Z,27.40
2022-10-17T23:06:06.499Z,24.20
2022-10-17T23:08:34.174Z,38.45
2022-10-17T23:11:01.822Z,36.95
2022-10-17T23:13:29.468Z,49.72
2022-10-17T23:15:58.373Z,143.83
2022-10-17T23:18:26.973Z,88.88
2022-10-17T23:20:55.130Z,42.47
2022-10-17T23:23:24.457Z,43.63
2022-10-17T23:25:52.112Z,61.80
2022-10-17T23:28:19.931Z,43.20
2022-10-17T23:30:47.587Z,50.07
2022-10-17T23:33:15.543Z,46.30
2022-10-17T23:35:43.192Z,39.03
2022-10-17T23:38:10.867Z,42.65
2022-10-17T23:40:39.886Z,43.03
2022-10-17T23:43:07.578Z,45.42
2022-10-17T23:45:37.156Z,48.92
2022-10-17T23:48:05.664Z,89.85
2022-10-17T23:50:33.320Z,63.40
2022-10-17T23:53:00.897Z,142.43
2022-10-17T23:55:28.743Z,88.72
2022-10-17T23:57:57.773Z,88.25
